createdAt,value
2019-01-26T15:11:11.909Z,14.00
2019-01-26T15:13:45.627Z,9.63
2019-01-26T15:16:19.995Z,8.43
2019-01-26T15:18:54.473Z,10.37
2019-01-26T15:21:28.248Z,9.13
2019-01-26T15:24:01.912Z,9.40
2019-01-26T15:26:35.756Z,8.33
2019-01-26T15:29:10.400Z,7.70
2019-01-26T15:31:44.941Z,9.57
2019-01-26T15:34:45.660Z,8.57
2019-01-26T15:37:19.488Z,8.80
2019-01-26T15:39:53.420Z,10.37
2019-01-26T15:42:28.115Z,9.13
2019-01-26T15:45:03.244Z,10.43
2019-01-26T15:47:35.593Z,10.60
2019-01-26T15:50:13.221Z,9.10
2019-01-26T15:52:43.169Z,9.70
2019-01-26T15:55:21.255Z,11.37
2019-01-26T15:57:55.737Z,10.07
2019-01-26T16:00:34.552Z,10.60
2019-01-26T16:03:09.010Z,9.23
2019-01-26T16:05:42.856Z,9.83
2019-01-26T16:08:16.748Z,12.00
2019-01-26T16:10:50.568Z,11.07
2019-01-26T16:13:25.152Z,13.73
2019-01-26T16:15:58.973Z,10.87
2019-01-26T16:18:33.502Z,10.17
2019-01-26T16:21:07.305Z,9.53
2019-01-26T16:23:40.945Z,10.57
2019-01-26T16:26:15.397Z,9.20
2019-01-26T16:28:49.020Z,11.30
2019-01-26T16:31:22.717Z,9.90
2019-01-26T16:33:56.408Z,15.00
2019-01-26T16:36:30.342Z,10.67
2019-01-26T16:39:04.114Z,9.63
2019-01-26T16:41:37.842Z,11.53
2019-01-26T16:44:11.737Z,10.77
2019-01-26T16:46:45.491Z,14.53
2019-01-26T16:49:19.246Z,12.57
2019-01-26T16:51:52.949Z,11.20
2019-01-26T16:54:27.592Z,11.60
2019-01-26T16:57:01.297Z,10.10
2019-01-26T16:59:35.805Z,12.03
2019-01-26T17:02:10.333Z,10.93
2019-01-26T17:04:44.052Z,10.77
2019-01-26T17:07:18.580Z,11.30
2019-01-26T17:09:53.080Z,10.23
2019-01-26T17:12:27.640Z,12.43
2019-01-26T17:15:01.306Z,12.57
2019-01-26T17:17:35.082Z,13.73
2019-01-26T17:20:23.108Z,11.17
2019-01-26T17:22:56.775Z,10.37
2019-01-26T17:25:31.457Z,11.50
2019-01-26T17:28:05.189Z,9.93
2019-01-26T17:30:38.895Z,12.80
2019-01-26T17:33:13.525Z,10.83
2019-01-26T17:35:48.160Z,9.53
2019-01-26T17:38:21.861Z,11.13
2019-01-26T17:40:55.829Z,11.13
2019-01-26T17:43:29.664Z,14.13
2019-01-26T17:46:04.225Z,8.60
2019-01-26T17:48:37.088Z,11.07
2019-01-26T17:51:11.725Z,11.33
2019-01-26T17:53:46.306Z,11.67
2019-01-26T17:56:20.150Z,9.30
2019-01-26T17:58:53.890Z,9.80
2019-01-26T18:01:27.628Z,10.67
2019-01-26T18:04:01.454Z,13.67
2019-01-26T18:06:35.325Z,13.47
2019-01-26T18:09:09.104Z,13.87
2019-01-26T18:11:42.859Z,11.23
2019-01-26T18:14:16.737Z,14.67
2019-01-26T18:16:50.424Z,12.20
2019-01-26T18:19:23.996Z,13.40
2019-01-26T18:21:57.824Z,14.33
2019-01-26T18:24:31.660Z,11.10
2019-01-26T18:27:05.307Z,9.97
2019-01-26T18:29:39.272Z,10.50
2019-01-26T18:32:13.025Z,11.03
2019-01-26T18:34:46.748Z,11.63
2019-01-26T18:37:20.566Z,10.57
2019-01-26T18:39:54.161Z,10.87
2019-01-26T18:42:28.762Z,9.90
2019-01-26T18:45:02.654Z,10.37
2019-01-26T18:47:37.155Z,11.53
2019-01-26T18:50:12.390Z,11.70
2019-01-26T18:52:45.996Z,10.73
2019-01-26T18:55:19.805Z,10.00
2019-01-26T18:57:53.524Z,9.63
2019-01-26T19:00:28.809Z,10.73
2019-01-26T19:03:13.577Z,7.60
2019-01-26T19:05:47.328Z,11.17
2019-01-26T19:08:21.948Z,9.63
2019-01-26T19:10:55.696Z,16.13
2019-01-26T19:13:29.448Z,8.87
2019-01-26T19:16:03.200Z,10.77
2019-01-26T19:18:36.974Z,9.07
2019-01-26T19:21:10.824Z,8.37
2019-01-26T19:23:44.512Z,6.53
2019-01-26T19:26:18.107Z,9.60
2019-01-26T19:28:52.682Z,8.67
2019-01-26T19:31:26.620Z,9.93
2019-01-26T19:34:00.479Z,8.40
2019-01-26T19:36:35.124Z,9.77
2019-01-26T19:39:09.607Z,8.07
2019-01-26T19:41:44.101Z,8.47
2019-01-26T19:44:17.985Z,9.40
2019-01-26T19:46:52.655Z,10.03
2019-01-26T19:49:27.397Z,7.37
2019-01-26T19:52:01.077Z,8.73
2019-01-26T19:54:35.009Z,9.63
2019-01-26T19:57:09.555Z,10.30
2019-01-26T19:59:43.432Z,9.43
2019-01-26T20:02:17.940Z,10.90
2019-01-26T20:04:52.456Z,9.07
2019-01-26T20:07:26.188Z,9.07
2019-01-26T20:10:00.008Z,8.70
2019-01-26T20:12:34.696Z,11.93
2019-01-26T20:15:09.377Z,10.60
2019-01-26T20:17:44.325Z,11.30
2019-01-26T20:20:17.801Z,9.97
2019-01-26T20:22:51.665Z,9.20
2019-01-26T20:25:25.379Z,8.27
2019-01-26T20:27:59.164Z,10.90
2019-01-26T20:30:32.797Z,9.97
2019-01-26T20:33:06.693Z,8.57
2019-01-26T20:35:40.425Z,6.87
2019-01-26T20:38:14.294Z,8.70
2019-01-26T20:40:47.898Z,8.00
2019-01-26T20:43:21.648Z,9.40
2019-01-26T20:45:55.528Z,9.00
2019-01-26T20:48:30.052Z,11.20
2019-01-26T20:51:04.598Z,7.47
2019-01-26T20:53:38.279Z,7.97
2019-01-26T20:56:12.812Z,10.63
2019-01-26T20:58:46.508Z,8.50
2019-01-26T21:01:20.330Z,9.70
2019-01-26T21:03:54.176Z,7.27
2019-01-26T21:06:27.917Z,9.33
2019-01-26T21:09:01.523Z,7.50
2019-01-26T21:11:35.371Z,10.67
2019-01-26T21:14:09.212Z,8.60
2019-01-26T21:16:43.085Z,7.50
2019-01-26T21:19:16.872Z,7.90
2019-01-26T21:21:50.559Z,7.83
2019-01-26T21:24:24.431Z,9.17
2019-01-26T21:26:58.157Z,7.80
2019-01-26T21:29:31.769Z,10.03
2019-01-26T21:32:05.539Z,8.50
2019-01-26T21:34:39.336Z,8.43
2019-01-26T21:37:13.049Z,9.47
2019-01-26T21:39:46.856Z,9.23
2019-01-26T21:42:20.486Z,6.93
2019-01-26T21:44:54.425Z,8.93
2019-01-26T21:47:28.150Z,7.20
2019-01-26T21:50:01.802Z,6.20
2019-01-26T21:52:40.926Z,7.07
2019-01-26T21:55:09.104Z,7.77
2019-01-26T21:57:42.747Z,7.97
2019-01-26T22:00:17.172Z,6.20
2019-01-26T22:02:51.716Z,7.13
2019-01-26T22:05:25.480Z,7.40
2019-01-26T22:07:59.293Z,7.57
2019-01-26T22:10:33.010Z,7.40
2019-01-26T22:13:06.921Z,9.53
2019-01-26T22:15:40.616Z,6.80
2019-01-26T22:18:14.371Z,5.53
2019-01-26T22:20:48.221Z,5.77
2019-01-26T22:23:21.998Z,6.40
2019-01-26T22:25:55.839Z,7.50
2019-01-26T22:28:29.525Z,6.13
2019-01-26T22:31:03.192Z,6.83
2019-01-26T22:33:36.984Z,4.83
2019-01-26T22:36:10.820Z,7.30
2019-01-26T22:38:44.553Z,9.73
2019-01-26T22:41:19.275Z,6.27
2019-01-26T22:43:52.979Z,7.40
2019-01-26T22:46:26.704Z,5.33
2019-01-26T22:49:00.588Z,5.60
2019-01-26T22:51:34.394Z,7.23
2019-01-26T22:54:08.068Z,6.57
2019-01-26T22:56:42.687Z,8.50
2019-01-26T22:59:16.408Z,8.57
2019-01-26T23:01:50.073Z,8.53
2019-01-26T23:04:25.908Z,6.53
2019-01-26T23:07:15.410Z,8.30
2019-01-26T23:12:54.152Z,8.75
2019-01-26T23:21:56.865Z,10.10
2019-01-26T23:27:26.234Z,7.30
2019-01-26T23:30:16.704Z,6.93
2019-01-26T23:32:50.459Z,5.37
2019-01-26T23:35:24.220Z,6.53
2019-01-26T23:37:57.964Z,5.47
2019-01-26T23:40:31.772Z,5.47
2019-01-26T23:43:05.422Z,5.23
2019-01-26T23:45:39.247Z,5.63
2019-01-26T23:48:13.028Z,5.27
2019-01-26T23:50:46.715Z,4.90
2019-01-26T23:53:20.331Z,7.87
2019-01-26T23:55:54.068Z,4.63
2019-01-26T23:58:27.715Z,4.83
